createdAt,value
2019-02-17T00:01:52.982Z,65.82
2019-02-17T00:04:23.122Z,65.99
2019-02-17T00:06:53.405Z,66.00
2019-02-17T00:09:23.442Z,66.04
2019-02-17T00:11:53.682Z,66.12
2019-02-17T00:14:24.075Z,66.12
2019-02-17T00:16:54.002Z,66.14
2019-02-17T00:19:24.142Z,66.13
2019-02-17T00:21:54.242Z,66.09
2019-02-17T00:24:25.432Z,66.03
2019-02-17T00:26:55.542Z,66.07
2019-02-17T00:29:25.623Z,66.01
2019-02-17T00:31:55.982Z,66.10
2019-02-17T00:34:25.962Z,66.14
2019-02-17T00:36:56.183Z,66.03
2019-02-17T00:39:26.462Z,65.92
2019-02-17T00:41:56.430Z,66.02
2019-02-17T00:44:26.428Z,66.09
2019-02-17T00:46:56.785Z,65.99
2019-02-17T00:49:26.864Z,65.96
2019-02-17T00:51:57.122Z,65.94
2019-02-17T00:54:27.105Z,65.85
2019-02-17T00:56:57.262Z,65.86
2019-02-17T00:59:27.242Z,65.75
2019-02-17T01:01:57.290Z,65.82
2019-02-17T01:04:27.286Z,65.72
2019-02-17T01:06:57.526Z,65.69
2019-02-17T01:09:27.505Z,65.65
2019-02-17T01:11:57.966Z,65.72
2019-02-17T01:14:28.045Z,65.70
2019-02-17T01:16:58.306Z,65.73
2019-02-17T01:19:28.286Z,65.80
2019-02-17T01:21:58.648Z,65.86
2019-02-17T01:24:28.625Z,65.84
2019-02-17T01:26:59.086Z,65.84
2019-02-17T01:29:29.066Z,65.82
2019-02-17T01:31:59.325Z,65.80
2019-02-17T01:34:29.306Z,65.87
2019-02-17T01:36:59.564Z,65.80
2019-02-17T01:39:29.645Z,65.75
2019-02-17T01:41:59.904Z,65.71
2019-02-17T01:44:29.886Z,65.69
2019-02-17T01:47:00.228Z,65.62
2019-02-17T01:49:30.344Z,65.70
2019-02-17T01:52:00.405Z,65.70
2019-02-17T01:54:30.444Z,65.39
2019-02-17T01:57:00.621Z,65.34
2019-02-17T01:59:31.021Z,65.36
2019-02-17T02:02:01.123Z,65.27
2019-02-17T02:04:31.205Z,65.23
2019-02-17T02:07:01.383Z,65.29
2019-02-17T02:09:31.585Z,65.16
2019-02-17T02:12:01.683Z,65.18
2019-02-17T02:14:31.905Z,65.03
2019-02-17T02:17:02.023Z,65.00
2019-02-17T02:19:32.244Z,64.97
2019-02-17T02:22:02.363Z,65.04
2019-02-17T02:24:32.383Z,65.02
2019-02-17T02:27:02.482Z,65.05
2019-02-17T02:29:40.690Z,65.10
2019-02-17T02:32:04.397Z,65.15
2019-02-17T02:34:34.690Z,65.13
2019-02-17T02:37:04.804Z,65.06
2019-02-17T02:39:35.022Z,65.14
2019-02-17T02:42:05.384Z,65.08
2019-02-17T02:44:35.362Z,65.07
2019-02-17T02:47:05.627Z,65.11
2019-02-17T02:49:35.810Z,65.08
2019-02-17T02:52:06.062Z,65.03
2019-02-17T02:54:36.142Z,64.99
2019-02-17T02:57:06.484Z,65.01
2019-02-17T02:59:36.585Z,64.97
2019-02-17T03:02:06.701Z,64.99
2019-02-17T03:04:37.063Z,65.05
2019-02-17T03:07:07.242Z,65.07
2019-02-17T03:09:37.542Z,65.07
2019-02-17T03:12:07.783Z,65.09
2019-02-17T03:14:38.204Z,65.06
2019-02-17T03:17:08.141Z,65.03
2019-02-17T03:19:38.241Z,65.00
2019-02-17T03:22:08.662Z,64.91
2019-02-17T03:24:38.981Z,64.92
2019-02-17T03:27:09.943Z,64.92
2019-02-17T03:29:39.941Z,64.94
2019-02-17T03:32:10.205Z,64.74
2019-02-17T03:34:40.201Z,64.88
2019-02-17T03:37:10.204Z,64.86
2019-02-17T03:39:40.621Z,64.79
2019-02-17T03:42:10.741Z,64.67
2019-02-17T03:44:40.763Z,64.79
2019-02-17T03:47:10.881Z,64.69
2019-02-17T03:49:40.901Z,64.59
2019-02-17T03:52:11.003Z,64.69
2019-02-17T03:54:40.982Z,64.58
2019-02-17T03:57:11.041Z,64.45
2019-02-17T03:59:40.961Z,64.43
2019-02-17T04:02:11.281Z,64.50
2019-02-17T04:04:41.202Z,64.40
2019-02-17T04:07:11.320Z,64.39
2019-02-17T04:09:41.521Z,64.43
2019-02-17T04:12:11.888Z,64.51
2019-02-17T04:14:41.960Z,64.41
2019-02-17T04:17:12.230Z,64.42
2019-02-17T04:19:42.305Z,64.38
2019-02-17T04:22:12.666Z,64.47
2019-02-17T04:24:42.640Z,64.51
2019-02-17T04:27:12.881Z,64.53
2019-02-17T04:29:42.880Z,64.61
2019-02-17T04:34:53.901Z,64.68
2019-02-17T04:37:23.901Z,64.96
2019-02-17T04:39:53.800Z,64.96
2019-02-17T04:42:23.901Z,65.03
2019-02-17T04:44:54.120Z,65.03
2019-02-17T04:47:24.063Z,65.01
2019-02-17T04:49:54.261Z,64.92
2019-02-17T04:52:24.401Z,64.91
2019-02-17T04:54:54.484Z,64.81
2019-02-17T04:57:24.421Z,64.77
2019-02-17T04:59:54.419Z,64.68
2019-02-17T05:02:24.665Z,64.69
2019-02-17T05:04:54.671Z,64.69
2019-02-17T05:07:24.908Z,64.58
2019-02-17T05:09:54.902Z,64.61
2019-02-17T05:12:25.121Z,64.61
2019-02-17T05:14:55.145Z,64.63
2019-02-17T05:17:25.117Z,64.51
2019-02-17T05:19:55.161Z,64.46
2019-02-17T05:22:25.421Z,64.35
2019-02-17T05:24:55.423Z,64.27
2019-02-17T05:27:25.503Z,64.07
2019-02-17T05:29:55.641Z,63.95
2019-02-17T05:32:25.542Z,63.80
2019-02-17T05:34:55.581Z,63.64
2019-02-17T05:37:25.701Z,63.79
2019-02-17T05:39:55.865Z,63.67
2019-02-17T05:42:25.923Z,63.74
2019-02-17T05:44:56.241Z,63.63
2019-02-17T05:47:26.262Z,63.70
2019-02-17T05:49:56.384Z,63.62
2019-02-17T05:52:26.623Z,63.32
2019-02-17T05:54:56.623Z,63.50
2019-02-17T05:57:26.841Z,63.41
2019-02-17T05:59:56.762Z,63.23
2019-02-17T06:02:26.762Z,63.44
2019-02-17T06:04:56.882Z,63.25
2019-02-17T06:07:27.003Z,63.08
2019-02-17T06:09:57.022Z,62.95
2019-02-17T06:12:27.241Z,62.76
2019-02-17T06:14:57.365Z,62.74
2019-02-17T06:17:27.482Z,62.53
2019-02-17T06:19:57.502Z,62.65
2019-02-17T06:22:27.501Z,62.45
2019-02-17T06:24:57.822Z,62.48
2019-02-17T06:27:27.862Z,62.41
2019-02-17T06:29:57.868Z,62.39
2019-02-17T06:32:27.801Z,62.46
2019-02-17T06:34:57.802Z,62.38
2019-02-17T06:37:28.002Z,62.42
2019-02-17T06:39:58.123Z,62.36
2019-02-17T06:42:28.143Z,62.21
2019-02-17T06:44:58.962Z,62.24
2019-02-17T06:47:30.583Z,62.23
2019-02-17T06:50:00.542Z,62.27
2019-02-17T06:52:30.785Z,62.41
2019-02-17T06:55:17.262Z,62.35
2019-02-17T06:57:49.087Z,62.32
2019-02-17T07:00:21.257Z,61.86
2019-02-17T07:02:51.322Z,61.67
2019-02-17T07:05:26.860Z,61.60
2019-02-17T07:07:57.110Z,61.48
2019-02-17T07:10:27.115Z,61.32
2019-02-17T07:12:57.222Z,61.23
2019-02-17T07:15:27.342Z,60.94
2019-02-17T07:17:59.227Z,60.71
2019-02-17T07:20:29.402Z,60.59
2019-02-17T07:22:59.662Z,60.57
2019-02-17T07:25:30.579Z,60.40
2019-02-17T07:28:00.882Z,60.10
2019-02-17T07:30:30.982Z,61.33
2019-02-17T07:33:01.043Z,62.25
2019-02-17T07:35:30.923Z,63.02
2019-02-17T07:38:01.082Z,63.07
2019-02-17T07:40:30.982Z,63.27
2019-02-17T07:43:00.982Z,63.48
2019-02-17T07:45:31.002Z,63.55
2019-02-17T07:48:01.424Z,63.71
2019-02-17T07:50:31.602Z,63.80
2019-02-17T07:53:01.524Z,63.78
2019-02-17T07:55:31.783Z,63.90
2019-02-17T07:58:01.782Z,64.08
2019-02-17T08:00:31.803Z,64.12
2019-02-17T08:03:02.026Z,65.62
2019-02-17T08:05:32.322Z,66.32
2019-02-17T08:08:02.263Z,65.84
2019-02-17T08:10:32.283Z,65.52
2019-02-17T08:13:02.223Z,65.37
2019-02-17T08:15:32.202Z,65.23
2019-02-17T08:18:02.449Z,65.08
2019-02-17T08:20:32.743Z,64.89
2019-02-17T08:23:02.704Z,64.65
2019-02-17T08:25:32.788Z,64.53
2019-02-17T08:28:02.805Z,64.42
2019-02-17T08:30:32.923Z,64.24
2019-02-17T08:33:03.364Z,64.21
2019-02-17T08:35:33.363Z,64.14
2019-02-17T08:38:03.641Z,64.11
2019-02-17T08:40:34.403Z,63.84
2019-02-17T08:43:04.423Z,63.82
2019-02-17T08:45:34.523Z,63.96
2019-02-17T08:48:04.463Z,64.08
2019-02-17T08:50:34.564Z,63.94
2019-02-17T08:53:04.830Z,63.97
2019-02-17T08:55:34.722Z,64.30
2019-02-17T08:58:05.042Z,66.55
2019-02-17T09:00:35.245Z,66.38
2019-02-17T09:03:05.262Z,66.14
2019-02-17T09:05:43.974Z,65.68
2019-02-17T09:08:07.443Z,65.39
2019-02-17T09:10:37.562Z,65.48
2019-02-17T09:13:07.563Z,65.42
2019-02-17T09:15:37.583Z,65.20
2019-02-17T09:18:07.503Z,65.20
2019-02-17T09:20:37.665Z,65.17
2019-02-17T09:23:07.582Z,65.01
2019-02-17T09:25:37.567Z,64.79
2019-02-17T09:28:07.562Z,64.65
2019-02-17T09:30:37.682Z,64.64
2019-02-17T09:33:07.903Z,64.60
2019-02-17T09:35:38.227Z,64.61
2019-02-17T09:38:08.603Z,64.53
2019-02-17T09:40:38.782Z,64.60
2019-02-17T09:43:08.782Z,64.45
2019-02-17T09:45:38.843Z,64.48
2019-02-17T09:48:08.923Z,64.55
2019-02-17T09:50:38.962Z,64.31
2019-02-17T09:53:08.962Z,63.98
2019-02-17T09:55:39.607Z,63.81
2019-02-17T09:58:09.722Z,63.76
2019-02-17T10:00:39.922Z,63.57
2019-02-17T10:03:10.135Z,63.49
2019-02-17T10:05:40.271Z,63.32
2019-02-17T10:08:10.283Z,63.27
2019-02-17T10:10:40.348Z,63.19
2019-02-17T10:13:10.420Z,63.01
2019-02-17T10:15:40.382Z,62.82
2019-02-17T10:18:10.342Z,62.73
2019-02-17T10:20:40.566Z,62.56
2019-02-17T10:23:10.582Z,62.61
2019-02-17T10:25:40.782Z,62.54
2019-02-17T10:28:10.902Z,62.48
2019-02-17T10:30:41.023Z,62.42
2019-02-17T10:33:11.123Z,62.32
2019-02-17T10:35:41.263Z,62.25
2019-02-17T10:38:11.582Z,62.08
2019-02-17T10:40:41.702Z,61.97
2019-02-17T10:43:12.022Z,61.94
2019-02-17T10:45:42.182Z,61.89
2019-02-17T10:48:12.062Z,62.22
2019-02-17T10:50:43.157Z,60.96
2019-02-17T10:53:13.169Z,62.00
2019-02-17T10:55:43.609Z,61.95
2019-02-17T10:58:14.075Z,61.98
2019-02-17T11:00:44.562Z,61.69
2019-02-17T11:03:14.622Z,61.33
2019-02-17T11:05:53.343Z,61.30
2019-02-17T11:08:24.417Z,61.34
2019-02-17T11:10:55.139Z,61.52
2019-02-17T11:13:26.243Z,61.61
2019-02-17T11:15:56.502Z,61.71
2019-02-17T11:18:26.562Z,61.83
2019-02-17T11:20:57.190Z,61.71
2019-02-17T11:23:27.402Z,61.77
2019-02-17T11:29:52.384Z,62.43
2019-02-17T11:32:24.591Z,61.51
2019-02-17T11:35:23.154Z,62.97
2019-02-17T11:38:07.565Z,62.83
2019-02-17T11:40:39.203Z,66.12
2019-02-17T11:43:10.662Z,61.61
2019-02-17T11:45:42.322Z,61.63
2019-02-17T11:49:12.423Z,61.82
2019-02-17T11:51:44.222Z,61.43
2019-02-17T11:54:15.789Z,62.58
2019-02-17T11:56:47.304Z,61.38
2019-02-17T11:59:18.844Z,61.45
2019-02-17T12:01:50.524Z,61.52
2019-02-17T12:04:22.122Z,61.37
2019-02-17T12:06:53.622Z,61.12
2019-02-17T12:09:25.265Z,62.26
2019-02-17T12:11:56.924Z,61.04
2019-02-17T12:18:35.764Z,30.64
2019-02-17T12:21:08.845Z,38.88
2019-02-17T12:23:50.945Z,44.96
2019-02-17T12:26:23.924Z,45.24
2019-02-17T12:28:56.922Z,44.74
2019-02-17T12:31:29.883Z,46.47
2019-02-17T12:34:01.362Z,46.36
2019-02-17T12:36:32.782Z,45.72
2019-02-17T12:39:04.823Z,46.40
2019-02-17T12:41:36.203Z,44.97
2019-02-17T12:44:07.643Z,47.14
